Portada
METAR-TAF:

METAR-TAF

Aeroports :

Eleusis, Grècia

latitud: 38-04N, longitud: 023-33E, altitud: 44 m

Observació

L'informe es va fer fa 33 minuts, a les 13:20 UTC
Vent 4 kt del Sud
Temperatura 21°C
Humitat 69%
Pressió 1017 hPa
Visibilitat 10 km o més
Núvols disperses a una alçada de 2000 ft
Cel ennuvolat a una alçada de 7000 ft

METAR: LGEL 181320Z 19004KT 9999 SCT020 BKN070 21/15 Q1017

Hora: 15:53 (13:53 UTC)

Pronòstic

L'informe es va fer fa 2 hores i 53 minuts, a les 11:00 UTC
Pronòstic vàlid del 18 a les 12 UTC al 19 a les 12 UTC
Vent 10 kt del Sud
Visibilitat: 8000 m
Escasses núvols a una alçada de 2000 ft
Núvols disperses a una alçada de 6000 ft
Probabilitat 40% :
Temporalment
l' 19 a les 03 UTC al 19 a les 12 UTC
Visibilitat: 5000 m
Núvols disperses a una alçada de 2000 ft
Cel ennuvolat a una alçada de 6000 ft
pluja

TAF: LGEL 181100Z 1812/1912 17010KT 8000 FEW020 SCT060 PROB40 TEMPO 1903/1912 5000 RA SCT020 BKN060

Observacions i pronòstics meteorològics de més de 4000 aeroports (METAR i TAF).

Les estacions disponibles són els punts grocs i vermells al mapa.

Posi el ratolí al punt desitjat per veure el nom de l'estació.

Feu clic per veure les observacions i els pronòstics meteorològics.

Per canviar el mapa: feu clic els botons verds amb una creu de color negre per apropar; al botó verd amb un guió per allunyar la imatge; o en les fletxes verdes per a mapes adjacents.


METAR-TAF: